Flight Track Log - Related Links

Times and Time Zones

All times are in EDT time to prevent confusion due to time zone crossing. See the SKW5631 flight status page for this flight to view local times or setup timezone preferences in your user account.


Time Position Orientation Groundspeed Altitude Reporting Facility
EDT Latitude Longitude Course Direction KTS MPH feet Rate Location/Type
Sun 10:58:00 PM 37.2291 -121.8904 135° Southeast  Level Estimated
Sun 10:59:00 PM 37.1508 -121.7941 136° Southeast  Level Estimated
Sun 11:00:00 PM 37.0725 -121.6979 136° Southeast  Level Estimated
Sun 11:01:00 PM 36.9941 -121.6020 136° Southeast  Level Estimated
Sun 11:02:00 PM 36.9156 -121.5062 136° Southeast  Level Estimated
Sun 11:03:00 PM 36.8371 -121.4106 136° Southeast  Level Estimated
Sun 11:04:00 PM 36.7584 -121.3153 136° Southeast  Level Estimated
Sun 11:05:00 PM 36.6797 -121.2201 136° Southeast  Level Estimated
Sun 11:06:00 PM 36.6010 -121.1251 136° Southeast  Level Estimated
Sun 11:07:00 PM 36.5221 -121.0303 136° Southeast  Level Estimated
Sun 11:08:00 PM 36.4432 -120.9358 136° Southeast  Level Estimated
Sun 11:09:00 PM 36.3642 -120.8413 136° Southeast  Level Estimated
Sun 11:10:00 PM 36.2851 -120.7471 136° Southeast  Level Estimated
Sun 11:11:00 PM 36.2060 -120.6531 136° Southeast  Level Estimated
Sun 11:12:00 PM 36.1267 -120.5593 136° Southeast  Level Estimated
Sun 11:13:00 PM 36.0474 -120.4657 136° Southeast  Level Estimated
Sun 11:14:00 PM 35.9680 -120.3722 136° Southeast  Level Estimated
Sun 11:15:00 PM 35.8886 -120.2789 136° Southeast  Level Estimated
Sun 11:16:00 PM 35.8091 -120.1859 136° Southeast  Level Estimated
Sun 11:17:00 PM 35.7295 -120.0930 137° Southeast  Level Estimated
Sun 11:18:00 PM 35.6498 -120.0003 137° Southeast  Level Estimated
Sun 11:19:00 PM 35.5701 -119.9078 137° Southeast  Level Estimated
Sun 11:20:00 PM 35.4903 -119.8154 137° Southeast  Level Estimated
Sun 11:21:00 PM 35.4104 -119.7233 137° Southeast  Level Estimated
Sun 11:22:00 PM 35.3305 -119.6313 137° Southeast  Level Estimated
Sun 11:23:00 PM 35.2505 -119.5395 137° Southeast  Level Estimated
Sun 11:24:00 PM 35.1704 -119.4479 137° Southeast  Level Estimated
Sun 11:25:00 PM 35.0903 -119.3565 137° Southeast  Level Estimated
Sun 11:26:00 PM 35.0100 -119.2653 137° Southeast  Level Estimated
Sun 11:27:00 PM 34.9298 -119.1742 137° Southeast  Level Estimated
Sun 11:28:00 PM 34.8494 -119.0833 137° Southeast  Level Estimated
Sun 11:29:00 PM 34.7690 -118.9926 137° Southeast  Level Estimated
Sun 11:30:00 PM 34.6885 -118.9021 137° Southeast  Level Estimated
Sun 11:31:00 PM 34.6079 -118.8117 137° Southeast  Level Estimated
Sun 11:32:00 PM 34.5273 -118.7215 137° Southeast  Level Estimated
Sun 11:33:00 PM 34.4466 -118.6315 137° Southeast  Level Estimated
Sun 11:34:00 PM 34.3659 -118.5417 137° Southeast  Level Estimated
Sun 11:35:00 PM 34.2851 -118.4520 137° Southeast  Level Estimated
Sun 11:36:00 PM 34.2042 -118.3625 138° Southeast  Level Estimated
Sun 11:37:00 PM 34.2007 -118.3587 138° Southeast  Level Estimated
Sun 11:38:00 PM 34.2007 -118.3587 140° Southeast  Level Estimated
Sun 11:39:00 PM 34.2007 -118.3587 140° Southeast  Level Estimated
Sun 11:40:00 PM 34.2007 -118.3587 140° Southeast  Level Estimated
Sun 11:41:00 PM 34.2007 -118.3587 140° Southeast  Level Estimated
Sun 11:42:00 PM 34.2007 -118.3587 140° Southeast  Level Estimated
Sun 11:43:00 PM 34.2007 -118.3587 140° Southeast  Level Estimated
Sun 11:44:00 PM 34.2007 -118.3587 140° Southeast  Level Estimated
Sun 11:45:00 PM 34.2007 -118.3587 140° Southeast  Level Estimated
Sun 11:46:00 PM 34.2007 -118.3587 140° Southeast  Level Estimated
Sun 11:47:00 PM 34.2007 -118.3587 140° Southeast  Level Estimated
Sun 11:48:00 PM 34.2007 -118.3587 140° Southeast  Level Estimated
Sun 11:49:00 PM 34.2007 -118.3587 140° Southeast  Level Estimated
Sun 11:50:00 PM 34.2007 -118.3587 140° Southeast  Level Estimated

Login

Don't have an account? Register now (free) for customized features, flight alerts, and more!